PWSweather.com
Personal Weather Stations
Station Observations

NjegusiYU

Lat: 42.43746, Lon: 18.822765

Elevation: 856

Station Type: Davis Vantage Vue

http://pljusak.com/njegusi/index.html

Latest ConditionsUpdated 1:40:00 PM GMT+01:01 Friday, Aug 17, 2018
Currently Today's Max Today's Min Today's Average
Temperature 77.7°F25.4°C 80.7°F27.1°C 55.3°F12.9°C 66.5°F19.2°C
Dew Point 64.1°F17.8°C 65.0°F18.3°C 54.5°F12.5°C 59.8°F15.4°C
Winds 2.0 mph SE3.2 kmh SE 3.0 mph -4.8 kmh - - 0.5 mph 0.8 kmh
Wind Gusts 11.0 mph17.7 kmh 11.0 mph17.7 kmh - -
Humidity 63% 98% 48% 81%
Pressure 27.14 in919.1 mb 27.16 in919.7 mb 27.13 in918.7 mb -
Hour Temp Dew Point Humidity Winds Wind Gusts Pressure Precip Precip Rate Daily Precip Total
01:40 PM 77.7°F25.4°C 64.1°F17.8°C 63% 2.0 mph SE3.2 kmh SE 11.0 mph17.7 kmh 27.14 in919.1 mb 0.00 in0.0 mm 0.00 in0.0 mm 0.00 in0.0 mm
01:30 PM 78.3°F25.7°C 63.7°F17.6°C 61% 3.0 mph SE4.8 kmh SE 7.0 mph11.3 kmh 27.14 in919.1 mb 0.00 in0.0 mm 0.00 in0.0 mm 0.00 in0.0 mm
01:20 PM 79.2°F26.2°C 65.0°F18.3°C 62% 3.0 mph SE4.8 kmh SE 7.0 mph11.3 kmh 27.14 in919.1 mb 0.00 in0.0 mm 0.00 in0.0 mm 0.00 in0.0 mm
01:10 PM 79.2°F26.2°C 65.0°F18.3°C 62% 3.0 mph SE4.8 kmh SE 11.0 mph17.7 kmh 27.15 in919.4 mb 0.00 in0.0 mm 0.00 in0.0 mm 0.00 in0.0 mm
01:00 PM 79.3°F26.3°C 63.7°F17.6°C 59% 2.0 mph SE3.2 kmh SE 6.0 mph9.7 kmh 27.15 in919.4 mb 0.00 in0.0 mm 0.00 in0.0 mm 0.00 in0.0 mm
12:50 PM 78.4°F25.8°C 63.3°F17.4°C 60% 2.0 mph SE3.2 kmh SE 7.0 mph11.3 kmh 27.15 in919.4 mb 0.00 in0.0 mm 0.00 in0.0 mm 0.00 in0.0 mm
12:40 PM 78.1°F25.6°C 64.0°F17.8°C 62% 3.0 mph SE4.8 kmh SE 11.0 mph17.7 kmh 27.15 in919.4 mb 0.00 in0.0 mm 0.00 in0.0 mm 0.00 in0.0 mm
12:30 PM 78.1°F25.6°C 64.0°F17.8°C 62% 3.0 mph SE4.8 kmh SE 11.0 mph17.7 kmh 27.15 in919.4 mb 0.00 in0.0 mm 0.00 in0.0 mm 0.00 in0.0 mm
12:20 PM 78.2°F25.7°C 64.1°F17.8°C 62% 3.0 mph SE4.8 kmh SE 10.0 mph16.1 kmh 27.15 in919.4 mb 0.00 in0.0 mm 0.00 in0.0 mm 0.00 in0.0 mm
12:10 PM 78.5°F25.8°C 63.0°F17.2°C 59% 3.0 mph SE4.8 kmh SE 11.0 mph17.7 kmh 27.15 in919.4 mb 0.00 in0.0 mm 0.00 in0.0 mm 0.00 in0.0 mm
12:00 PM 78.7°F25.9°C 62.7°F17.1°C 58% 3.0 mph SE4.8 kmh SE 9.0 mph14.5 kmh 27.15 in919.4 mb 0.00 in0.0 mm 0.00 in0.0 mm 0.00 in0.0 mm
11:50 AM 78.6°F25.9°C 62.1°F16.7°C 57% 2.0 mph SE3.2 kmh SE 6.0 mph9.7 kmh 27.16 in919.7 mb 0.00 in0.0 mm 0.00 in0.0 mm 0.00 in0.0 mm
11:40 AM 78.3°F25.7°C 62.8°F17.1°C 59% 3.0 mph SE4.8 kmh SE 8.0 mph12.9 kmh 27.16 in919.7 mb 0.00 in0.0 mm 0.00 in0.0 mm 0.00 in0.0 mm
11:30 AM 77.9°F25.5°C 61.4°F16.3°C 57% 2.0 mph SE3.2 kmh SE 8.0 mph12.9 kmh 27.16 in919.7 mb 0.00 in0.0 mm 0.00 in0.0 mm 0.00 in0.0 mm
11:20 AM 78.6°F25.9°C 60.5°F15.8°C 54% 2.0 mph SE3.2 kmh SE 6.0 mph9.7 kmh 27.16 in919.7 mb 0.00 in0.0 mm 0.00 in0.0 mm 0.00 in0.0 mm
11:10 AM 79.4°F26.3°C 61.8°F16.6°C 55% 2.0 mph SE3.2 kmh SE 5.0 mph8.0 kmh 27.16 in919.7 mb 0.00 in0.0 mm 0.00 in0.0 mm 0.00 in0.0 mm
11:00 AM 78.9°F26.1°C 60.8°F16.0°C 54% 2.0 mph SE3.2 kmh SE 5.0 mph8.0 kmh 27.16 in919.7 mb 0.00 in0.0 mm 0.00 in0.0 mm 0.00 in0.0 mm
10:50 AM 79.3°F26.3°C 61.7°F16.5°C 55% 1.0 mph SE1.6 kmh SE 7.0 mph11.3 kmh 27.16 in919.7 mb 0.00 in0.0 mm 0.00 in0.0 mm 0.00 in0.0 mm
10:40 AM 80.6°F27.0°C 60.2°F15.7°C 50% Calm Calm -- 27.16 in919.7 mb 0.00 in0.0 mm 0.00 in0.0 mm 0.00 in0.0 mm
10:30 AM 80.7°F27.1°C 59.2°F15.1°C 48% Calm Calm -- 27.16 in919.7 mb 0.00 in0.0 mm 0.00 in0.0 mm 0.00 in0.0 mm
10:20 AM 80.7°F27.1°C 60.3°F15.7°C 50% Calm Calm 1.0 mph1.6 kmh 27.16 in919.7 mb 0.00 in0.0 mm 0.00 in0.0 mm 0.00 in0.0 mm
10:10 AM 78.0°F25.6°C 59.5°F15.3°C 53% Calm Calm -- 27.16 in919.7 mb 0.00 in0.0 mm 0.00 in0.0 mm 0.00 in0.0 mm
10:00 AM 77.0°F25.0°C 60.6°F15.9°C 57% Calm Calm -- 27.16 in919.7 mb 0.00 in0.0 mm 0.00 in0.0 mm 0.00 in0.0 mm
09:50 AM 75.9°F24.4°C 61.0°F16.1°C 60% Calm Calm -- 27.16 in919.7 mb 0.00 in0.0 mm 0.00 in0.0 mm 0.00 in0.0 mm
09:40 AM 75.2°F24.0°C 60.3°F15.7°C 60% Calm Calm -- 27.16 in919.7 mb 0.00 in0.0 mm 0.00 in0.0 mm 0.00 in0.0 mm
09:30 AM 75.2°F24.0°C 63.0°F17.2°C 66% Calm Calm -- 27.16 in919.7 mb 0.00 in0.0 mm 0.00 in0.0 mm 0.00 in0.0 mm
09:20 AM 74.8°F23.8°C 61.8°F16.6°C 64% Calm Calm -- 27.16 in919.7 mb 0.00 in0.0 mm 0.00 in0.0 mm 0.00 in0.0 mm
09:10 AM 73.5°F23.1°C 62.7°F17.1°C 69% Calm Calm -- 27.16 in919.7 mb 0.00 in0.0 mm 0.00 in0.0 mm 0.00 in0.0 mm
09:00 AM 72.0°F22.2°C 62.1°F16.7°C 71% Calm Calm -- 27.16 in919.7 mb 0.00 in0.0 mm 0.00 in0.0 mm 0.00 in0.0 mm
08:50 AM 70.8°F21.6°C 62.5°F16.9°C 75% Calm Calm -- 27.16 in919.7 mb 0.00 in0.0 mm 0.00 in0.0 mm 0.00 in0.0 mm
08:40 AM 69.3°F20.7°C 61.8°F16.6°C 77% Calm Calm -- 27.16 in919.7 mb 0.00 in0.0 mm 0.00 in0.0 mm 0.00 in0.0 mm
08:30 AM 67.8°F19.9°C 62.8°F17.1°C 84% Calm Calm -- 27.16 in919.7 mb 0.00 in0.0 mm 0.00 in0.0 mm 0.00 in0.0 mm
08:20 AM 66.4°F19.1°C 62.1°F16.7°C 86% Calm Calm -- 27.16 in919.7 mb 0.00 in0.0 mm 0.00 in0.0 mm 0.00 in0.0 mm
08:10 AM 65.5°F18.6°C 61.5°F16.4°C 87% Calm Calm -- 27.16 in919.7 mb 0.00 in0.0 mm 0.00 in0.0 mm 0.00 in0.0 mm
08:00 AM 64.5°F18.1°C 60.5°F15.8°C 87% Calm Calm -- 27.16 in919.7 mb 0.00 in0.0 mm 0.00 in0.0 mm 0.00 in0.0 mm
07:50 AM 63.7°F17.6°C 61.0°F16.1°C 91% Calm Calm -- 27.16 in919.7 mb 0.00 in0.0 mm 0.00 in0.0 mm 0.00 in0.0 mm
07:40 AM 62.7°F17.1°C 61.2°F16.2°C 95% Calm Calm -- 27.16 in919.7 mb 0.00 in0.0 mm 0.00 in0.0 mm 0.00 in0.0 mm
07:30 AM 61.4°F16.3°C 60.2°F15.7°C 96% Calm Calm -- 27.16 in919.7 mb 0.00 in0.0 mm 0.00 in0.0 mm 0.00 in0.0 mm
07:20 AM 60.5°F15.8°C 59.9°F15.5°C 98% Calm Calm -- 27.16 in919.7 mb 0.00 in0.0 mm 0.00 in0.0 mm 0.00 in0.0 mm
07:10 AM 59.4°F15.2°C 58.8°F14.9°C 98% Calm Calm -- 27.16 in919.7 mb 0.00 in0.0 mm 0.00 in0.0 mm 0.00 in0.0 mm
07:00 AM 58.6°F14.8°C 58.0°F14.4°C 98% Calm Calm -- 27.16 in919.7 mb 0.00 in0.0 mm 0.00 in0.0 mm 0.00 in0.0 mm
06:50 AM 58.1°F14.5°C 57.5°F14.2°C 98% Calm Calm -- 27.15 in919.4 mb 0.00 in0.0 mm 0.00 in0.0 mm 0.00 in0.0 mm
06:40 AM 57.5°F14.2°C 56.9°F13.8°C 98% Calm Calm -- 27.15 in919.4 mb 0.00 in0.0 mm 0.00 in0.0 mm 0.00 in0.0 mm
06:30 AM 56.9°F13.8°C 56.3°F13.5°C 98% Calm Calm -- 27.15 in919.4 mb 0.00 in0.0 mm 0.00 in0.0 mm 0.00 in0.0 mm
06:20 AM 56.3°F13.5°C 55.7°F13.2°C 98% Calm Calm -- 27.15 in919.4 mb 0.00 in0.0 mm 0.00 in0.0 mm 0.00 in0.0 mm
06:10 AM 56.0°F13.3°C 55.4°F13.0°C 98% Calm Calm -- 27.15 in919.4 mb 0.00 in0.0 mm 0.00 in0.0 mm 0.00 in0.0 mm
06:00 AM 55.6°F13.1°C 55.0°F12.8°C 98% Calm Calm -- 27.15 in919.4 mb 0.00 in0.0 mm 0.00 in0.0 mm 0.00 in0.0 mm
05:50 AM 55.4°F13.0°C 54.8°F12.7°C 98% Calm Calm -- 27.14 in919.1 mb 0.00 in0.0 mm 0.00 in0.0 mm 0.00 in0.0 mm
05:40 AM 55.3°F12.9°C 54.5°F12.5°C 97% Calm Calm -- 27.14 in919.1 mb 0.00 in0.0 mm 0.00 in0.0 mm 0.00 in0.0 mm
05:30 AM 55.7°F13.2°C 54.9°F12.7°C 97% Calm Calm -- 27.14 in919.1 mb 0.00 in0.0 mm 0.00 in0.0 mm 0.00 in0.0 mm
05:20 AM 56.4°F13.6°C 55.6°F13.1°C 97% Calm Calm -- 27.14 in919.1 mb 0.00 in0.0 mm 0.00 in0.0 mm 0.00 in0.0 mm
05:10 AM 56.2°F13.4°C 55.4°F13.0°C 97% Calm Calm -- 27.14 in919.1 mb 0.00 in0.0 mm 0.00 in0.0 mm 0.00 in0.0 mm
05:00 AM 56.2°F13.4°C 55.4°F13.0°C 97% Calm Calm -- 27.14 in919.1 mb 0.00 in0.0 mm 0.00 in0.0 mm 0.00 in0.0 mm
04:50 AM 56.5°F13.6°C 55.7°F13.2°C 97% Calm Calm -- 27.14 in919.1 mb 0.00 in0.0 mm 0.00 in0.0 mm 0.00 in0.0 mm
04:40 AM 56.4°F13.6°C 55.6°F13.1°C 97% Calm Calm -- 27.14 in919.1 mb 0.00 in0.0 mm 0.00 in0.0 mm 0.00 in0.0 mm
04:30 AM 56.4°F13.6°C 55.3°F12.9°C 96% Calm Calm -- 27.14 in919.1 mb 0.00 in0.0 mm 0.00 in0.0 mm 0.00 in0.0 mm
04:20 AM 57.0°F13.9°C 55.9°F13.3°C 96% Calm Calm -- 27.14 in919.1 mb 0.00 in0.0 mm 0.00 in0.0 mm 0.00 in0.0 mm
04:10 AM 56.9°F13.8°C 55.8°F13.2°C 96% Calm Calm -- 27.14 in919.1 mb 0.00 in0.0 mm 0.00 in0.0 mm 0.00 in0.0 mm
04:00 AM 57.8°F14.3°C 56.7°F13.7°C 96% Calm Calm -- 27.14 in919.1 mb 0.00 in0.0 mm 0.00 in0.0 mm 0.00 in0.0 mm
03:50 AM 58.2°F14.6°C 57.1°F13.9°C 96% Calm Calm -- 27.14 in919.1 mb 0.00 in0.0 mm 0.00 in0.0 mm 0.00 in0.0 mm
03:40 AM 58.6°F14.8°C 57.5°F14.2°C 96% Calm Calm -- 27.14 in919.1 mb 0.00 in0.0 mm 0.00 in0.0 mm 0.00 in0.0 mm
03:30 AM 58.8°F14.9°C 57.7°F14.3°C 96% Calm Calm -- 27.14 in919.1 mb 0.00 in0.0 mm 0.00 in0.0 mm 0.00 in0.0 mm
03:20 AM 59.2°F15.1°C 58.1°F14.5°C 96% Calm Calm -- 27.13 in918.7 mb 0.00 in0.0 mm 0.00 in0.0 mm 0.00 in0.0 mm
03:10 AM 59.6°F15.3°C 58.2°F14.6°C 95% Calm Calm -- 27.13 in918.7 mb 0.00 in0.0 mm 0.00 in0.0 mm 0.00 in0.0 mm
03:00 AM 59.9°F15.5°C 58.5°F14.7°C 95% Calm Calm -- 27.13 in918.7 mb 0.00 in0.0 mm 0.00 in0.0 mm 0.00 in0.0 mm
02:50 AM 60.2°F15.7°C 58.8°F14.9°C 95% Calm Calm -- 27.13 in918.7 mb 0.00 in0.0 mm 0.00 in0.0 mm 0.00 in0.0 mm
02:40 AM 60.5°F15.8°C 59.1°F15.1°C 95% Calm Calm -- 27.14 in919.1 mb 0.00 in0.0 mm 0.00 in0.0 mm 0.00 in0.0 mm
02:30 AM 60.7°F15.9°C 59.3°F15.2°C 95% Calm Calm -- 27.14 in919.1 mb 0.00 in0.0 mm 0.00 in0.0 mm 0.00 in0.0 mm
02:20 AM 60.9°F16.1°C 59.2°F15.1°C 94% Calm Calm -- 27.14 in919.1 mb 0.00 in0.0 mm 0.00 in0.0 mm 0.00 in0.0 mm
02:10 AM 61.0°F16.1°C 59.3°F15.2°C 94% Calm Calm -- 27.14 in919.1 mb 0.00 in0.0 mm 0.00 in0.0 mm 0.00 in0.0 mm
02:00 AM 61.3°F16.3°C 59.3°F15.2°C 93% Calm Calm -- 27.14 in919.1 mb 0.00 in0.0 mm 0.00 in0.0 mm 0.00 in0.0 mm
01:50 AM 61.4°F16.3°C 59.4°F15.2°C 93% Calm Calm -- 27.14 in919.1 mb 0.00 in0.0 mm 0.00 in0.0 mm 0.00 in0.0 mm
01:40 AM 61.8°F16.6°C 59.4°F15.2°C 92% Calm Calm -- 27.14 in919.1 mb 0.00 in0.0 mm 0.00 in0.0 mm 0.00 in0.0 mm
01:30 AM 62.4°F16.9°C 59.7°F15.4°C 91% Calm Calm -- 27.14 in919.1 mb 0.00 in0.0 mm 0.00 in0.0 mm 0.00 in0.0 mm
01:20 AM 62.9°F17.2°C 60.2°F15.7°C 91% Calm Calm -- 27.14 in919.1 mb 0.00 in0.0 mm 0.00 in0.0 mm 0.00 in0.0 mm
01:10 AM 63.3°F17.4°C 60.3°F15.7°C 90% Calm Calm -- 27.14 in919.1 mb 0.00 in0.0 mm 0.00 in0.0 mm 0.00 in0.0 mm
01:00 AM 63.0°F17.2°C 60.6°F15.9°C 92% Calm Calm -- 27.14 in919.1 mb 0.00 in0.0 mm 0.00 in0.0 mm 0.00 in0.0 mm
12:50 AM 63.2°F17.3°C 60.8°F16.0°C 92% Calm Calm -- 27.14 in919.1 mb 0.00 in0.0 mm 0.00 in0.0 mm 0.00 in0.0 mm
12:40 AM 63.6°F17.6°C 60.9°F16.1°C 91% Calm Calm -- 27.14 in919.1 mb 0.00 in0.0 mm 0.00 in0.0 mm 0.00 in0.0 mm
12:30 AM 64.1°F17.8°C 61.1°F16.2°C 90% Calm Calm -- 27.14 in919.1 mb 0.00 in0.0 mm 0.00 in0.0 mm 0.00 in0.0 mm
12:20 AM 64.4°F18.0°C 61.1°F16.2°C 89% Calm Calm -- 27.14 in919.1 mb 0.00 in0.0 mm 0.00 in0.0 mm 0.00 in0.0 mm
12:10 AM 64.6°F18.1°C 61.3°F16.3°C 89% Calm Calm -- 27.15 in919.4 mb 0.00 in0.0 mm 0.00 in0.0 mm 0.00 in0.0 mm
12:00 AM 64.1°F17.8°C 61.1°F16.2°C 90% Calm Calm -- 27.15 in919.4 mb 0.00 in0.0 mm 0.00 in0.0 mm 0.00 in0.0 mm